Big Bear Station Historical Data
Daily Summary for February 15, 2017 Units:  English    Metric   Both
« Previous Day
Next Day »
Daily Weekly Monthly Yearly Custom
  High: Low: Average:
Temperature: 55.4 °F 27.0 °F 36.7 °F
Dew Point: 27.3 °F 19.0 °F 23.4 °F
Humidity: 88 % 26 % 62 %
Wind Speed: 4.7 mph 0.0 mph 0.8 mph
Wind Gust: -999.0 mph - -
Wind:- - SSW
Pressure: 30.25 in 30.19 in -
Precipitation: 0.00 in    
Historical Graphs
 
 
Tabular Data for February 15, 2017
Time Temperature Dew Point Pressure Wind Wind Speed Wind Gust Humidity Rainfall Rate (Hourly)
00:14 27.5 °F 22.4 °F 30.22 in SSE 1.7 mph -999.0 mph 81 % 0 in
00:29 27.1 °F 21.5 °F 30.22 in Calm   -999.0 mph 79 % 0 in
00:44 27.0 °F 21.9 °F 30.22 in Calm   -999.0 mph 81 % 0 in
01:00 27.1 °F 21.2 °F 30.22 in Calm   -999.0 mph 78 % 0 in
01:15 27.5 °F 20.3 °F 30.22 in Calm   -999.0 mph 74 % 0 in
01:31 28.0 °F 20.8 °F 30.22 in SSE 1.7 mph -999.0 mph 74 % 0 in
01:46 28.2 °F 21.0 °F 30.22 in Calm   -999.0 mph 74 % 0 in
02:02 27.9 °F 21.3 °F 30.22 in Calm   -999.0 mph 76 % 0 in
02:17 28.2 °F 21.0 °F 30.22 in Calm   -999.0 mph 74 % 0 in
02:32 28.0 °F 20.5 °F 30.21 in Calm   -999.0 mph 73 % 0 in
02:47 27.9 °F 19.7 °F 30.21 in Calm   -999.0 mph 71 % 0 in
03:03 27.9 °F 19.0 °F 30.21 in Calm   -999.0 mph 69 % 0 in
03:18 28.6 °F 20.1 °F 30.21 in Calm   -999.0 mph 70 % 0 in
03:33 28.6 °F 20.1 °F 30.21 in SSE 2.7 mph -999.0 mph 70 % 0 in
03:48 28.8 °F 20.2 °F 30.21 in South 2.7 mph -999.0 mph 70 % 0 in
04:04 28.2 °F 20.0 °F 30.20 in SSE 1.7 mph -999.0 mph 71 % 0 in
04:19 27.5 °F 20.3 °F 30.21 in Calm   -999.0 mph 74 % 0 in
04:35 27.9 °F 20.4 °F 30.21 in Calm   -999.0 mph 73 % 0 in
04:50 28.6 °F 20.1 °F 30.21 in Calm   -999.0 mph 70 % 0 in
05:05 28.8 °F 20.6 °F 30.21 in Calm   -999.0 mph 71 % 0 in
05:20 28.0 °F 20.1 °F 30.21 in Calm   -999.0 mph 72 % 0 in
05:36 28.0 °F 20.1 °F 30.21 in Calm   -999.0 mph 72 % 0 in
05:51 27.7 °F 20.2 °F 30.21 in Calm   -999.0 mph 73 % 0 in
06:06 28.2 °F 20.7 °F 30.21 in Calm   -999.0 mph 73 % 0 in
06:21 28.0 °F 20.8 °F 30.21 in Calm   -999.0 mph 74 % 0 in
06:36 27.9 °F 21.3 °F 30.21 in Calm   -999.0 mph 76 % 0 in
06:52 27.3 °F 21.0 °F 30.21 in Calm   -999.0 mph 77 % 0 in
07:07 27.3 °F 21.9 °F 30.21 in SSE 2.2 mph -999.0 mph 80 % 0 in
07:23 27.3 °F 21.6 °F 30.21 in South 1.1 mph -999.0 mph 79 % 0 in
07:38 27.9 °F 21.9 °F 30.22 in Calm   -999.0 mph 78 % 0 in
07:53 29.5 °F 22.6 °F 30.23 in South 1.7 mph -999.0 mph 75 % 0 in
08:09 32.0 °F 23.7 °F 30.22 in SSE 1.7 mph -999.0 mph 71 % 0 in
08:24 32.7 °F 24.3 °F 30.23 in Calm   -999.0 mph 71 % 0 in
08:40 34.0 °F 24.9 °F 30.23 in Calm   -999.0 mph 69 % 0 in
08:55 36.5 °F 23.9 °F 30.23 in Calm   -999.0 mph 60 % 0 in
09:10 38.8 °F 24.4 °F 30.24 in NNW 1.1 mph -999.0 mph 56 % 0 in
09:25 40.8 °F 25.0 °F 30.24 in East 2.7 mph -999.0 mph 53 % 0 in
09:40 42.3 °F 24.5 °F 30.24 in North 2.2 mph -999.0 mph 49 % 0 in
09:56 44.4 °F 24.9 °F 30.24 in South 1.7 mph -999.0 mph 46 % 0 in
10:11 45.9 °F 24.6 °F 30.24 in NW 2.7 mph -999.0 mph 43 % 0 in
10:26 47.7 °F 23.9 °F 30.25 in Calm   -999.0 mph 39 % 0 in
10:41 47.3 °F 25.4 °F 30.25 in Calm   -999.0 mph 42 % 0 in
10:56 48.7 °F 25.4 °F 30.24 in NNE 1.7 mph -999.0 mph 40 % 0 in
11:12 49.1 °F 23.9 °F 30.24 in NE 3.2 mph -999.0 mph 37 % 0 in
11:27 49.5 °F 24.3 °F 30.24 in NNW 4.7 mph -999.0 mph 37 % 0 in
11:42 50.0 °F 24.7 °F 30.24 in NW 2.7 mph -999.0 mph 37 % 0 in
11:58 50.7 °F 24.0 °F 30.24 in WNW 2.7 mph -999.0 mph 35 % 0 in
12:14 51.6 °F 22.7 °F 30.23 in Calm   -999.0 mph 32 % 0 in
12:29 51.6 °F 22.7 °F 30.23 in ESE 3.2 mph -999.0 mph 32 % 0 in
12:44 53.6 °F 23.7 °F 30.22 in South 1.7 mph -999.0 mph 31 % 0 in
12:59 53.4 °F 22.7 °F 30.22 in WNW 1.7 mph -999.0 mph 30 % 0 in
13:15 53.4 °F 20.2 °F 30.21 in Calm   -999.0 mph 27 % 0 in
13:30 55.4 °F 21.1 °F 30.21 in ESE 1.1 mph -999.0 mph 26 % 0 in
13:45 52.3 °F 20.1 °F 30.20 in SSW 1.7 mph -999.0 mph 28 % 0 in
14:00 53.1 °F 23.2 °F 30.20 in West 1.7 mph -999.0 mph 31 % 0 in
14:16 50.9 °F 24.2 °F 30.19 in North 1.1 mph -999.0 mph 35 % 0 in
14:32 50.4 °F 23.1 °F 30.20 in NNW 4.7 mph -999.0 mph 34 % 0 in
14:47 51.3 °F 24.6 °F 30.19 in East 1.7 mph -999.0 mph 35 % 0 in
15:02 50.5 °F 22.4 °F 30.19 in SSE 1.1 mph -999.0 mph 33 % 0 in
15:17 50.2 °F 22.9 °F 30.19 in Calm   -999.0 mph 34 % 0 in
15:32 49.5 °F 23.6 °F 30.19 in NNW 1.7 mph -999.0 mph 36 % 0 in
15:48 48.7 °F 22.3 °F 30.19 in Calm   -999.0 mph 35 % 0 in
16:03 48.2 °F 24.4 °F 30.19 in SE 1.7 mph -999.0 mph 39 % 0 in
16:18 47.3 °F 22.3 °F 30.19 in Calm   -999.0 mph 37 % 0 in
16:33 46.9 °F 23.8 °F 30.19 in WNW 1.7 mph -999.0 mph 40 % 0 in
16:48 46.0 °F 26.4 °F 30.19 in SSE 1.1 mph -999.0 mph 46 % 0 in
17:04 45.0 °F 27.0 °F 30.19 in SW 1.7 mph -999.0 mph 49 % 0 in
17:19 43.3 °F 27.3 °F 30.20 in Calm   -999.0 mph 53 % 0 in
17:34 41.9 °F 26.9 °F 30.20 in Calm   -999.0 mph 55 % 0 in
17:49 40.6 °F 26.6 °F 30.20 in SSE 1.7 mph -999.0 mph 57 % 0 in
18:04 39.6 °F 26.9 °F 30.20 in South 1.7 mph -999.0 mph 60 % 0 in
18:20 38.5 °F 26.2 °F 30.21 in South 1.7 mph -999.0 mph 61 % 0 in
18:35 37.2 °F 25.8 °F 30.21 in Calm   -999.0 mph 63 % 0 in
18:50 36.3 °F 26.0 °F 30.21 in Calm   -999.0 mph 66 % 0 in
19:05 35.4 °F 26.2 °F 30.21 in Calm   -999.0 mph 69 % 0 in
19:20 34.5 °F 26.7 °F 30.22 in Calm   -999.0 mph 73 % 0 in
19:36 33.8 °F 26.7 °F 30.22 in Calm   -999.0 mph 75 % 0 in
19:51 33.1 °F 26.4 °F 30.22 in Calm   -999.0 mph 76 % 0 in
20:06 32.7 °F 26.0 °F 30.22 in Calm   -999.0 mph 76 % 0 in
20:21 32.2 °F 26.7 °F 30.23 in Calm   -999.0 mph 80 % 0 in
20:36 32.0 °F 26.8 °F 30.23 in Calm   -999.0 mph 81 % 0 in
20:52 31.1 °F 26.2 °F 30.22 in Calm   -999.0 mph 82 % 0 in
21:07 30.6 °F 26.6 °F 30.23 in Calm   -999.0 mph 85 % 0 in
21:22 30.2 °F 25.4 °F 30.22 in Calm   -999.0 mph 82 % 0 in
21:37 29.3 °F 25.1 °F 30.22 in SSE 1.7 mph -999.0 mph 84 % 0 in
21:53 29.1 °F 25.2 °F 30.22 in Calm   -999.0 mph 85 % 0 in
22:08 28.9 °F 25.5 °F 30.22 in Calm   -999.0 mph 87 % 0 in
22:23 28.6 °F 25.2 °F 30.21 in Calm   -999.0 mph 87 % 0 in
22:38 28.8 °F 25.7 °F 30.21 in Calm   -999.0 mph 88 % 0 in
22:53 28.2 °F 25.1 °F 30.21 in Calm   -999.0 mph 88 % 0 in
23:09 27.7 °F 24.6 °F 30.21 in Calm   -999.0 mph 88 % 0 in
23:24 27.7 °F 23.8 °F 30.21 in Calm   -999.0 mph 85 % 0 in
23:39 27.5 °F 24.1 °F 30.20 in Calm   -999.0 mph 87 % 0 in
23:54 27.0 °F 23.6 °F 30.20 in Calm   -999.0 mph 87 % 0 in
Big Bear CA Weather
Compliments of Weather Underground - 1.5 mb